默认 日期 大小 文件数 浏览量 最新下载 xml
numbers磁力链接相关资源由用户搜索指令自动获取,结果来源于网络,本站不存储任何资料,亦不承担任何责任,请于24小时内删除,搜索到2928个磁力,用时3ms。
    {"01-Memtrix-Numbers.mp3": 12807232, "02-Memtrix-Limelight. ...
创建时间: 2018-12-03 06:52:20 大小:27.67 MB 文件数量:6 热度:9 最近下载:2025-08-02 06:13:06
    {"Torrent downloaded from Demonoid.txt": 46, "Torrent downloaded from AhaShare.com.txt": 59, "The Chicago Guide to Writing about Numbers-Mantesh.pdf": 12383337}
创建时间: 2018-12-03 12:13:39 大小:11.81 MB 文件数量:3 热度:6 最近下载:2024-09-21 17:27:02
    {"Mathematics for the Million - How to Master the Magic of Numbers.pdf": 21747780}
创建时间: 2018-12-03 14:36:37 大小:20.74 MB 文件数量:1 热度:11 最近下载:2025-03-28 00:43:02
    {"Downlaoded From PublicHD.SE.txt": 93, "The.Numbers.Station.2013.720p.WEB-DL.H264-HDWinG.mkv": 2970935758, "The.Numbers.Station.2013.720p.WEB-DL.H264-HDWinG.nfo": 1104}
创建时间: 2018-12-03 21:14:07 大小:2.77 GB 文件数量:3 热度:10 最近下载:2023-04-21 07:30:05
    {"pic.jpg": 92306, "back.jpg": 132806, "front.jpg": 128334, "screens.jpg": 332540, "Hot Numbers(1987).avi": 1017307082}
创建时间: 2018-12-03 22:47:48 大小:970.83 MB 文件数量:5 热度:8 最近下载:2023-04-21 08:30:02
    {"The Grapes of Math How Life Reflects Numbers and Numbers Reflect Life.epub": 24869253}
创建时间: 2018-12-04 00:21:42 大小:23.72 MB 文件数量:1 热度:12 最近下载:2025-03-25 02:02:02
    {"iWork__Keynote_661__Numbers_361__Pages_563.zip": 17044522}
创建时间: 2018-12-04 14:41:31 大小:16.25 MB 文件数量:1 热度:9 最近下载:2024-12-30 04:13:02
    {"RARBG.txt": 30, "Married.to.Medicine.S06E13.Sleep.Numbers.Gone.720p.HDTV.x264-CRiMSON.mkv": 1215078241, "married.to.medicine.s06e13.sleep.numbers.gone.720p.hdtv.x264-crimson.nfo": 816}
创建时间: 2018-12-04 18:41:17 大小:1.13 GB 文件数量:3 热度:6 最近下载:2023-04-21 14:50:04
    ... 50900859, "Morton Feldman - Composing By Numbers - 08 - Intersection II.ape": 29980472 ... 8808210, "Morton Feldman - Composing By Numbers - 09 - Intersection III.ape": ... 40986779, "Morton Feldman - Composing By Numbers - 07 - Marginal Intersection.ape": 26933346 ...
创建时间: 2018-12-04 19:23:50 大小:262.84 MB 文件数量:27 热度:10 最近下载:2025-02-13 09:48:02
    {"Mathematics for the Million.pdf": 21747780}
创建时间: 2018-12-04 21:51:36 大小:20.74 MB 文件数量:1 热度:11 最近下载:2025-09-15 17:45:10
    ... .jpg": 288206, "The Who By Numbers.pdf": 1124205}, "01-Slip Kid ... -The Who - The Who By Numbers.m3u8": 343}
创建时间: 2018-12-04 21:57:15 大小:1.09 GB 文件数量:16 热度:9 最近下载:2023-04-21 16:10:08
    {"iWork__Keynote_661__Numbers_361__Pages_563.zip": 20210258}
创建时间: 2018-12-04 22:34:01 大小:19.27 MB 文件数量:1 热度:8 最近下载:2025-01-04 05:03:01
    {"One Baby Daddy Dating by Numbers Series, Book 3.cue": 1976, "One Baby Daddy Dating by Numbers Series, Book 3.jpg": 40511, "One Baby Daddy Dating by Numbers Series, Book 3.m4b": 345709439}
创建时间: 2018-12-04 23:51:11 大小:329.73 MB 文件数量:3 热度:13 最近下载:2023-04-21 17:00:15
    {"01 - A Mind for Numbers.mp3": 203101897, "A Mind For Numbers_ How to Excel at Math and Science.epub": 9327313}
创建时间: 2018-12-05 01:28:48 大小:202.59 MB 文件数量:2 热度:6 最近下载:2023-04-21 17:40:10
    {"数字战.The.Numbers.Station.2013.720p.BluRay.x264.mkv": 2166809812}
创建时间: 2018-12-05 01:32:53 大小:2.02 GB 文件数量:1 热度:6 最近下载:2023-04-21 17:40:15
    {"5rFF.nfo": 3958, "5rFF-nstat.avi": 1159915520, "5rFF-nstat.srt": 47568}
创建时间: 2018-12-05 03:42:21 大小:1.08 GB 文件数量:3 热度:6 最近下载:2023-04-21 18:30:07
    ... , "The Who - The Who By Numbers japan back.jpg": 6105099, "The ... Who - The Who By Numbers japan front.jpg": 6359332, "The ... Who - The Who By Numbers japfrontobi.jpg": 906762, "The Who ... .flac": 22864399, "The Who By Numbers.cue": 2837, "09. How Many ...
创建时间: 2018-12-05 05:10:56 大小:371.35 MB 文件数量:32 热度:9 最近下载:2023-04-21 19:10:04
    {"cover.jpg": 78923, "Leviticus, Numbers - Roy Gane.epub": 1936343, "Leviticus, Numbers - Roy Gane.mobi": 2572167}
创建时间: 2018-12-05 06:03:17 大小:4.37 MB 文件数量:3 热度:8 最近下载:2025-02-14 19:12:02
    {"DARKSIDE RG.URL": 52, "Introduction to the Geometry of Complex Numbers~tqw~_darksiderg.nfo": 3578, "Introduction to the Geometry of Complex Numbers~tqw~_darksiderg.pdf": 5561091}
创建时间: 2018-12-05 06:49:09 大小:5.31 MB 文件数量:3 热度:9 最近下载:2025-02-25 09:52:05
    {"04 - Kinetic.mp3": 4253232, "05 - Shelters.mp3": 5766036, "09 - Motorcade.mp3": 4733469, "07 - Living Neon.mp3": 3876446, "08 - Man and Woman.mp3": 4546016, "01 - Catch the Beat.mp3": 4295871, "06 - Tomorrow Today.mp3": 4240700, "02 - Red Flags Fading. ...
创建时间: 2018-12-05 06:52:36 大小:45.34 MB 文件数量:11 热度:5 最近下载:2023-04-21 19:50:06